Time;durP1;ratioP1;P1;durP2;ratioP2;P2;SDS_P1;SDS_P2;PMS_P1;PMS_P2;Temp;Humidity;BMP_temperature;BMP_pressure;BME280_temperature;BME280_humidity;BME280_pressure;Samples;Min_cycle;Max_cycle;Signal;HPM_P1;HPM_P2
2021/09/10 00:01:37;;;;;;;17.00;13.97;;;;;;;18.83;100.00;101053.47;2616253;36;20122;-65
2021/09/10 00:04:08;;;;;;;16.73;12.13;;;;;;;18.90;100.00;101050.88;2617151;36;20419;-66
2021/09/10 00:06:36;;;;;;;20.77;16.70;;;;;;;19.04;100.00;101052.75;2617100;36;20081;-66
2021/09/10 00:09:05;;;;;;;21.67;17.67;;;;;;;19.11;100.00;101058.34;2617287;36;20134;-63
2021/09/10 00:11:33;;;;;;;26.23;20.02;;;;;;;19.11;100.00;101052.88;2617600;36;21098;-63
2021/09/10 00:14:01;;;;;;;26.30;18.00;;;;;;;19.13;100.00;101056.25;2617027;36;20118;-65
2021/09/10 00:16:30;;;;;;;29.73;20.83;;;;;;;19.17;100.00;101052.13;2617108;36;20070;-64
2021/09/10 00:18:58;;;;;;;24.15;20.48;;;;;;;19.12;100.00;101048.25;2616922;36;20093;-65
2021/09/10 00:21:29;;;;;;;30.70;21.90;;;;;;;19.11;100.00;101055.59;2617355;36;20158;-63
2021/09/10 00:23:57;;;;;;;25.73;22.15;;;;;;;19.07;100.00;101051.56;2617694;31;20027;-64
2021/09/10 00:26:25;;;;;;;29.97;22.97;;;;;;;19.02;100.00;101053.97;2617316;36;20574;-63
2021/09/10 00:28:53;;;;;;;28.33;22.87;;;;;;;19.03;100.00;101056.53;2617265;36;20378;-62
2021/09/10 00:31:21;;;;;;;34.13;23.53;;;;;;;18.98;100.00;101056.25;2617065;31;20787;-63
2021/09/10 00:33:50;;;;;;;31.30;22.77;;;;;;;18.98;100.00;101050.78;2617169;36;20122;-64
2021/09/10 00:36:18;;;;;;;36.17;26.27;;;;;;;19.00;100.00;101053.34;2617003;36;20023;-63
2021/09/10 00:38:49;;;;;;;35.37;27.23;;;;;;;18.96;100.00;101055.56;2617079;36;20302;-64
2021/09/10 00:41:17;;;;;;;33.80;25.60;;;;;;;18.94;100.00;101056.81;2616631;36;20386;-63
2021/09/10 00:43:45;;;;;;;33.17;24.70;;;;;;;18.91;100.00;101047.94;2617315;36;20023;-65
2021/09/10 00:46:13;;;;;;;36.88;25.35;;;;;;;18.94;100.00;101048.63;2616493;36;20395;-63
2021/09/10 00:48:42;;;;;;;41.92;28.50;;;;;;;18.97;100.00;101056.44;2616873;36;20122;-64
2021/09/10 12:41:30;;;;;;;13.75;12.38;;;;;;;23.07;100.00;101151.31;2614151;54;20035;-67
2021/09/10 12:44:00;;;;;;;13.70;12.27;;;;;;;23.03;100.00;101151.94;2616379;36;20081;-65
2021/09/10 12:46:28;;;;;;;14.10;11.70;;;;;;;23.20;100.00;101146.88;2616636;31;20034;-66
2021/09/10 12:48:57;;;;;;;13.13;11.80;;;;;;;23.16;100.00;101141.00;2615983;36;20058;-64
2021/09/10 12:51:25;;;;;;;12.30;11.02;;;;;;;23.04;100.00;101148.13;2617297;36;20038;-64
2021/09/10 12:53:53;;;;;;;12.45;11.25;;;;;;;22.92;100.00;101142.44;2618375;31;20524;-66
2021/09/10 12:56:21;;;;;;;13.35;12.05;;;;;;;22.90;100.00;101141.81;2617082;36;20042;-65
2021/09/10 12:58:52;;;;;;;13.30;11.70;;;;;;;22.96;100.00;101140.97;2617846;36;20038;-64
2021/09/10 13:01:20;;;;;;;13.93;11.88;;;;;;;22.72;100.00;101146.03;2617648;36;20134;-65
2021/09/10 13:03:49;;;;;;;15.23;12.70;;;;;;;22.71;100.00;101151.72;2617402;36;20451;-64
2021/09/10 13:06:17;;;;;;;13.10;11.65;;;;;;;22.65;100.00;101156.16;2617713;36;20087;-66
2021/09/10 13:08:45;;;;;;;12.88;11.43;;;;;;;22.63;100.00;101163.75;2617415;36;20077;-64
2021/09/10 13:11:13;;;;;;;14.82;13.18;;;;;;;22.44;100.00;101161.78;2617060;36;20142;-64
2021/09/10 13:13:41;;;;;;;13.48;12.00;;;;;;;22.35;100.00;101163.91;2618005;36;20456;-65
2021/09/10 13:16:12;;;;;;;14.27;12.25;;;;;;;22.32;100.00;101164.28;2617378;31;20520;-64
2021/09/10 13:18:40;;;;;;;14.50;13.05;;;;;;;22.20;100.00;101161.28;2617244;36;20088;-64
2021/09/10 13:21:09;;;;;;;15.55;13.50;;;;;;;22.16;100.00;101154.53;2617662;31;20538;-64
2021/09/10 13:23:37;;;;;;;15.45;12.55;;;;;;;22.20;100.00;101161.28;2617584;36;20055;-66
2021/09/10 13:26:05;;;;;;;17.88;13.40;;;;;;;22.12;100.00;101173.28;2616828;36;20058;-64
2021/09/10 13:28:33;;;;;;;17.98;16.02;;;;;;;21.76;100.00;101176.28;2617241;36;20076;-64
2021/09/10 13:31:01;;;;;;;21.90;17.33;;;;;;;21.69;100.00;101182.56;2616781;36;20042;-63
2021/09/10 13:33:32;;;;;;;21.02;16.77;;;;;;;21.55;100.00;101189.00;2617696;31;20460;-62
2021/09/10 13:36:00;;;;;;;21.25;18.92;;;;;;;21.44;100.00;101195.03;2617246;36;20034;-63
2021/09/10 13:38:29;;;;;;;22.52;19.95;;;;;;;21.42;100.00;101192.50;2617414;36;20523;-64
2021/09/10 13:40:57;;;;;;;29.52;21.90;;;;;;;21.39;100.00;101209.28;2615819;36;20568;-65
2021/09/10 13:43:25;;;;;;;26.23;21.25;;;;;;;21.34;100.00;101211.78;2616908;36;20142;-65
2021/09/10 13:45:54;;;;;;;28.88;23.58;;;;;;;21.03;100.00;101223.13;2617013;31;20042;-67
2021/09/10 13:48:22;;;;;;;28.42;24.40;;;;;;;20.96;100.00;101236.72;2617509;36;20419;-66
2021/09/10 13:50:53;;;;;;;32.20;25.60;;;;;;;20.97;100.00;101246.63;2616959;31;20591;-65
2021/09/10 13:53:21;;;;;;;29.98;26.83;;;;;;;20.95;100.00;101245.97;2617310;36;20058;-66
2021/09/10 13:55:49;;;;;;;31.27;27.23;;;;;;;20.83;100.00;101253.84;2616079;36;20137;-65
2021/09/10 13:58:17;;;;;;;32.70;26.70;;;;;;;20.72;100.00;101257.13;2617131;36;20038;-64
2021/09/10 14:00:46;;;;;;;25.63;22.88;;;;;;;20.63;100.00;101251.72;2616783;36;20038;-65
2021/09/10 14:03:14;;;;;;;24.33;21.67;;;;;;;20.41;100.00;101255.47;2617646;36;20114;-64
2021/09/10 14:05:42;;;;;;;25.77;20.83;;;;;;;20.42;100.00;101251.66;2616649;36;20034;-64
2021/09/10 14:08:13;;;;;;;23.48;19.25;;;;;;;20.04;100.00;101243.63;2616638;36;20593;-65
2021/09/10 14:10:41;;;;;;;23.02;20.17;;;;;;;20.01;100.00;101249.47;2616624;36;20104;-67
2021/09/10 14:13:09;;;;;;;23.42;20.05;;;;;;;20.04;100.00;101255.41;2617121;36;20114;-67
2021/09/10 14:15:38;;;;;;;23.27;18.88;;;;;;;20.03;100.00;101264.63;2616637;36;20041;-66
2021/09/10 14:18:06;;;;;;;24.88;21.17;;;;;;;20.10;100.00;101259.28;2616893;36;20085;-68
2021/09/10 14:20:34;;;;;;;27.95;22.35;;;;;;;20.02;100.00;101268.38;2616981;36;20139;-68
2021/09/10 14:23:02;;;;;;;30.88;24.45;;;;;;;19.85;100.00;101266.91;2617070;36;20027;-67
2021/09/10 14:25:33;;;;;;;31.02;25.33;;;;;;;19.87;100.00;101260.19;2616493;36;20555;-66
2021/09/10 14:28:02;;;;;;;31.05;25.95;;;;;;;19.95;100.00;101257.38;2616558;36;20574;-65
2021/09/10 14:30:30;;;;;;;39.63;26.87;;;;;;;20.03;100.00;101255.59;2616896;36;20081;-66
2021/09/10 14:32:58;;;;;;;31.17;25.10;;;;;;;20.10;100.00;101259.28;2617738;36;20787;-65
2021/09/10 14:35:26;;;;;;;28.95;23.38;;;;;;;20.18;100.00;101256.41;2617080;31;20747;-66
2021/09/10 14:37:55;;;;;;;26.15;21.20;;;;;;;20.04;100.00;101249.94;2616901;36;20038;-67
2021/09/10 14:40:24;;;;;;;24.20;19.63;;;;;;;19.97;100.00;101243.53;2616721;36;20026;-67
2021/09/10 14:42:59;;;;;;;22.55;20.02;;;;;;;20.11;100.00;101244.56;2617163;36;20041;-65
2021/09/10 14:45:28;;;;;;;20.85;18.25;;;;;;;20.09;100.00;101247.47;2616609;36;20550;-65
2021/09/10 14:47:56;;;;;;;23.67;20.98;;;;;;;20.05;100.00;101245.31;2616283;36;20031;-66
2021/09/10 14:50:24;;;;;;;25.58;21.20;;;;;;;20.12;100.00;101244.34;2616636;36;20555;-66
2021/09/10 14:52:53;;;;;;;25.17;19.90;;;;;;;20.42;100.00;101247.06;2617376;36;20606;-65
2021/09/10 14:55:21;;;;;;;28.88;23.33;;;;;;;20.28;100.00;101246.03;2617073;36;20084;-66
2021/09/10 14:57:49;;;;;;;29.52;24.92;;;;;;;20.39;100.00;101252.91;2617271;36;20023;-67
2021/09/10 15:00:20;;;;;;;30.42;25.25;;;;;;;20.55;100.00;101251.00;2616598;36;20038;-66
2021/09/10 15:02:48;;;;;;;28.38;25.23;;;;;;;20.74;100.00;101239.44;2617998;36;20122;-66
2021/09/10 15:05:17;;;;;;;28.57;24.50;;;;;;;20.83;100.00;101237.44;2616824;36;20121;-68
2021/09/10 15:07:45;;;;;;;28.27;24.58;;;;;;;20.74;100.00;101241.34;2617536;36;20299;-66
2021/09/10 15:10:13;;;;;;;30.77;24.37;;;;;;;20.79;100.00;101227.94;2617181;36;20030;-66
2021/09/10 15:12:42;;;;;;;29.85;24.05;;;;;;;20.72;100.00;101221.56;2616573;36;20421;-67
2021/09/10 15:15:12;;;;;;;27.15;22.77;;;;;;;20.74;100.00;101230.41;2616614;36;20034;-67
2021/09/10 15:17:43;;;;;;;28.63;24.20;;;;;;;20.62;100.00;101228.13;2616445;36;20027;-67
2021/09/10 15:20:13;;;;;;;29.77;26.00;;;;;;;20.70;100.00;101229.97;2615742;36;20034;-68
2021/09/10 15:22:41;;;;;;;24.88;22.15;;;;;;;20.77;100.00;101224.53;2616637;36;20026;-67
2021/09/10 15:25:11;;;;;;;27.08;24.10;;;;;;;20.69;100.00;101247.41;2616161;36;20113;-67
2021/09/10 15:27:39;;;;;;;31.35;25.33;;;;;;;20.46;100.00;101239.31;2615829;36;20093;-69
2021/09/10 15:30:09;;;;;;;31.73;24.65;;;;;;;20.61;100.00;101242.00;2615786;36;20027;-68
2021/09/10 15:32:38;;;;;;;28.80;25.13;;;;;;;20.65;100.00;101240.59;2615626;31;20030;-67
2021/09/10 15:35:10;;;;;;;31.38;23.73;;;;;;;20.56;100.00;101245.31;2616214;31;20113;-68
2021/09/10 15:37:38;;;;;;;31.17;25.30;;;;;;;20.71;100.00;101242.56;2615759;36;20089;-66
2021/09/10 15:40:08;;;;;;;28.13;25.02;;;;;;;21.07;100.00;101229.88;2616396;31;20085;-67
2021/09/10 15:42:36;;;;;;;26.10;23.38;;;;;;;21.64;100.00;101230.78;2616422;36;20073;-66
2021/09/10 15:45:05;;;;;;;25.65;23.00;;;;;;;21.55;100.00;101230.09;2616421;36;20090;-66
2021/09/10 15:47:33;;;;;;;25.83;22.98;;;;;;;21.49;100.00;101230.84;2616797;36;20034;-66
2021/09/10 15:50:01;;;;;;;26.25;22.25;;;;;;;21.48;100.00;101234.63;2616570;36;20070;-68
2021/09/10 15:52:32;;;;;;;27.30;23.45;;;;;;;21.44;100.00;101227.88;2615636;36;20547;-66
2021/09/10 15:55:02;;;;;;;25.42;21.95;;;;;;;21.56;100.00;101245.47;2616189;36;20149;-66
2021/09/10 15:57:33;;;;;;;25.50;22.30;;;;;;;21.56;100.00;101242.75;2616703;31;20022;-67
2021/09/10 16:00:02;;;;;;;30.42;23.92;;;;;;;21.28;100.00;101245.44;2616793;36;20439;-67
2021/09/10 16:02:30;;;;;;;29.10;22.40;;;;;;;21.20;100.00;101238.22;2616108;36;20620;-67
2021/09/10 16:04:58;;;;;;;26.60;23.80;;;;;;;21.27;100.00;101232.78;2617652;31;20516;-67
2021/09/10 16:07:27;;;;;;;26.77;23.60;;;;;;;21.21;100.00;101231.69;2616227;36;20197;-66
2021/09/10 16:09:57;;;;;;;27.55;23.92;;;;;;;21.28;100.00;101240.81;2616661;36;20062;-65
2021/09/10 16:12:27;;;;;;;27.92;23.08;;;;;;;21.27;100.00;101236.38;2616465;36;20034;-66
2021/09/10 16:14:55;;;;;;;29.15;24.13;;;;;;;21.41;100.00;101236.50;2615732;36;20343;-68
2021/09/10 16:17:24;;;;;;;26.40;21.73;;;;;;;21.50;100.00;101233.44;2616396;36;20087;-66
2021/09/10 16:19:52;;;;;;;28.60;23.95;;;;;;;21.29;100.00;101242.50;2616877;36;20039;-67
2021/09/10 16:22:22;;;;;;;26.77;23.92;;;;;;;21.26;100.00;101245.63;2615882;36;20145;-66
2021/09/10 16:24:50;;;;;;;28.58;23.48;;;;;;;21.12;100.00;101241.94;2616321;36;20531;-67
2021/09/10 16:27:21;;;;;;;28.45;24.60;;;;;;;20.85;100.00;101240.84;2616929;36;20435;-66
2021/09/10 16:29:49;;;;;;;28.58;24.77;;;;;;;20.88;100.00;101237.72;2614512;36;20626;-66
2021/09/10 16:32:19;;;;;;;34.92;25.52;;;;;;;20.82;100.00;101243.97;2615981;36;20209;-66
2021/09/10 16:34:48;;;;;;;25.88;22.95;;;;;;;20.95;100.00;101249.56;2616438;36;20023;-66
2021/09/10 16:37:17;;;;;;;29.55;23.25;;;;;;;21.09;100.00;101241.47;2616794;36;20030;-66
2021/09/10 16:39:45;;;;;;;27.80;23.35;;;;;;;21.12;100.00;101246.56;2616581;36;20038;-67
2021/09/10 16:42:15;;;;;;;25.20;22.58;;;;;;;21.23;100.00;101245.19;2615308;36;20130;-68
2021/09/10 16:44:46;;;;;;;24.85;22.17;;;;;;;21.22;100.00;101240.75;2616247;36;20030;-65
2021/09/10 16:47:14;;;;;;;21.10;17.75;;;;;;;21.19;100.00;101236.53;2615992;36;20602;-65
2021/09/10 16:49:42;;;;;;;22.27;18.30;;;;;;;21.18;100.00;101241.13;2616257;36;20058;-68
2021/09/10 16:52:10;;;;;;;25.58;20.52;;;;;;;20.98;100.00;101257.38;2615863;36;20444;-67
2021/09/10 16:54:39;;;;;;;24.80;19.20;;;;;;;20.89;100.00;101257.69;2616292;36;20126;-66
2021/09/10 16:57:08;;;;;;;26.52;20.98;;;;;;;20.65;100.00;101255.09;2616142;36;20122;-68
2021/09/10 16:59:36;;;;;;;;;;;;;;;20.50;100.00;101254.31;2616856;36;20038;-67
2021/09/10 17:02:10;;;;;;;33.95;22.92;;;;;;;20.31;100.00;101256.59;2615740;36;19988;-67
2021/09/10 17:04:38;;;;;;;29.63;22.35;;;;;;;20.38;100.00;101255.84;2616718;36;20153;-65
2021/09/10 17:07:07;;;;;;;28.52;21.23;;;;;;;20.38;100.00;101258.59;2616054;36;20081;-66
2021/09/10 17:09:35;;;;;;;21.30;17.25;;;;;;;20.45;100.00;101248.56;2616343;36;20039;-65
2021/09/10 17:12:03;;;;;;;22.15;15.57;;;;;;;20.51;100.00;101252.41;2616382;36;20034;-66
2021/09/10 17:14:31;;;;;;;18.08;12.93;;;;;;;20.63;100.00;101246.25;2617362;36;20517;-66
2021/09/10 17:16:59;;;;;;;14.82;11.60;;;;;;;20.50;100.00;101240.63;2616122;36;20088;-66
2021/09/10 17:19:31;;;;;;;13.75;10.82;;;;;;;20.45;100.00;101248.56;2616335;36;20161;-66
2021/09/10 17:21:59;;;;;;;19.80;11.85;;;;;;;20.05;100.00;101258.97;2616771;36;20072;-66
2021/09/10 17:24:27;;;;;;;14.95;10.75;;;;;;;19.99;100.00;101262.47;2616304;36;20595;-66
2021/09/10 17:26:55;;;;;;;15.70;10.82;;;;;;;20.13;100.00;101267.09;2616294;31;20057;-66
2021/09/10 17:29:23;;;;;;;14.48;12.32;;;;;;;19.98;100.00;101263.50;2616799;36;20125;-66
2021/09/10 17:31:52;;;;;;;17.73;14.43;;;;;;;19.75;100.00;101276.16;2616491;36;20121;-66
2021/09/10 17:34:21;;;;;;;20.02;14.68;;;;;;;19.77;100.00;101284.19;2616152;36;20535;-66
2021/09/10 17:36:51;;;;;;;18.15;14.80;;;;;;;19.67;100.00;101280.88;2616270;36;20045;-67
2021/09/10 17:39:19;;;;;;;24.63;17.13;;;;;;;19.65;100.00;101274.75;2617685;36;20046;-66
2021/09/10 17:41:48;;;;;;;26.00;16.83;;;;;;;19.66;100.00;101279.19;2617536;36;20042;-66
2021/09/10 17:44:17;;;;;;;21.88;16.65;;;;;;;19.75;100.00;101283.53;2614197;36;20415;-66
2021/09/10 17:46:45;;;;;;;25.33;18.65;;;;;;;19.68;100.00;101290.75;2618069;31;20512;-66
2021/09/10 17:49:13;;;;;;;25.03;18.50;;;;;;;19.57;100.00;101292.91;2617505;36;20579;-66
2021/09/10 17:51:42;;;;;;;28.00;20.17;;;;;;;19.49;100.00;101301.16;2615047;47;20963;-66
2021/09/10 17:54:13;;;;;;;24.52;19.05;;;;;;;19.49;100.00;101301.16;2616546;36;20607;-66
2021/09/10 17:56:41;;;;;;;30.08;21.25;;;;;;;19.33;100.00;101313.09;2617715;36;20035;-66
2021/09/10 17:59:09;;;;;;;38.37;22.50;;;;;;;19.28;100.00;101314.66;2617144;36;20038;-66
2021/09/10 18:01:37;;;;;;;25.97;19.53;;;;;;;19.39;100.00;101316.94;2615518;36;20317;-66
2021/09/10 18:04:06;;;;;;;34.73;22.13;;;;;;;19.24;100.00;101317.75;2616448;36;20292;-67
2021/09/10 18:06:34;;;;;;;28.05;21.42;;;;;;;19.25;100.00;101304.97;2616646;36;20030;-66
2021/09/10 18:09:02;;;;;;;33.37;21.30;;;;;;;19.23;100.00;101301.56;2616594;36;20071;-66
2021/09/10 18:11:33;;;;;;;32.10;21.67;;;;;;;19.16;100.00;101306.91;2616117;36;20399;-66
2021/09/10 18:14:02;;;;;;;31.38;23.90;;;;;;;19.05;100.00;101305.44;2616658;36;20058;-66
2021/09/10 18:16:31;;;;;;;29.45;22.85;;;;;;;19.25;100.00;101304.97;2616850;31;20057;-66
2021/09/10 18:18:59;;;;;;;26.88;21.52;;;;;;;19.15;100.00;101310.66;2617730;36;20416;-67
2021/09/10 18:21:27;;;;;;;31.92;23.08;;;;;;;19.20;100.00;101308.22;2617583;36;20042;-66
2021/09/10 18:23:56;;;;;;;29.93;21.87;;;;;;;19.23;100.00;101316.06;2616516;36;20106;-66
2021/09/10 18:26:25;;;;;;;29.58;22.15;;;;;;;19.19;100.00;101320.16;2616543;36;20267;-66
2021/09/10 18:28:55;;;;;;;29.17;21.73;;;;;;;19.29;100.00;101321.81;2616559;36;20154;-66
2021/09/10 18:31:24;;;;;;;26.38;20.80;;;;;;;19.34;100.00;101325.69;2616880;36;20031;-66
2021/09/10 18:33:52;;;;;;;22.98;19.35;;;;;;;19.23;100.00;101320.69;2616838;36;20141;-66
2021/09/10 18:36:20;;;;;;;25.53;21.13;;;;;;;19.23;100.00;101324.25;2617258;36;20122;-65
2021/09/10 18:38:48;;;;;;;25.90;20.00;;;;;;;19.30;100.00;101329.84;2617001;36;20804;-66
2021/09/10 18:41:17;;;;;;;28.42;22.15;;;;;;;19.20;100.00;101331.97;2617719;31;20539;-66
2021/09/10 18:43:46;;;;;;;32.78;22.40;;;;;;;19.12;100.00;101332.84;2616984;36;20061;-66
2021/09/10 18:46:16;;;;;;;30.48;22.27;;;;;;;19.10;100.00;101337.63;2616557;36;20201;-66
2021/09/10 18:48:45;;;;;;;23.27;19.30;;;;;;;19.13;100.00;101339.16;2616219;36;20051;-67
2021/09/10 18:51:13;;;;;;;26.02;19.90;;;;;;;19.12;100.00;101332.84;2617210;36;20092;-66
2021/09/10 18:53:41;;;;;;;24.60;19.40;;;;;;;19.13;100.00;101340.00;2616697;36;20404;-66
2021/09/10 18:56:10;;;;;;;23.63;19.80;;;;;;;19.05;100.00;101338.19;2615794;36;20050;-65
2021/09/10 18:58:38;;;;;;;23.35;19.67;;;;;;;19.03;100.00;101333.94;2616253;36;20039;-66
2021/09/10 19:01:06;;;;;;;25.75;21.20;;;;;;;19.04;100.00;101346.56;2615825;36;20023;-66
2021/09/10 19:03:37;;;;;;;29.70;21.52;;;;;;;19.00;100.00;101339.75;2616957;36;20046;-66
2021/09/10 19:06:07;;;;;;;26.85;20.35;;;;;;;19.07;100.00;101340.72;2617303;36;20495;-66
2021/09/10 19:08:36;;;;;;;28.33;22.08;;;;;;;18.99;100.00;101344.38;2617200;36;20548;-66
2021/09/10 19:11:05;;;;;;;30.17;22.77;;;;;;;18.93;100.00;101344.22;2617258;36;20088;-65
2021/09/10 19:13:34;;;;;;;29.63;22.13;;;;;;;18.93;100.00;101344.22;2616428;36;20077;-66
2021/09/10 19:16:02;;;;;;;24.75;20.33;;;;;;;18.92;100.00;101346.13;2616601;36;20136;-66
2021/09/10 19:18:30;;;;;;;29.92;22.02;;;;;;;18.85;100.00;101348.66;2616949;31;20030;-66
2021/09/10 19:21:01;;;;;;;27.48;22.08;;;;;;;18.84;100.00;101349.69;2617086;36;20077;-65
2021/09/10 19:23:30;;;;;;;24.00;21.05;;;;;;;18.90;100.00;101349.03;2616900;36;20588;-66
2021/09/10 19:25:58;;;;;;;24.40;20.23;;;;;;;18.88;100.00;101342.03;2616274;31;20041;-66
2021/09/10 19:28:27;;;;;;;28.48;22.50;;;;;;;18.85;100.00;101354.13;2616552;36;20077;-65
2021/09/10 19:30:55;;;;;;;25.90;21.58;;;;;;;18.77;100.00;101348.72;2616388;36;20022;-65
2021/09/10 19:33:23;;;;;;;32.05;24.40;;;;;;;18.73;100.00;101344.66;2616524;36;20570;-65
2021/09/10 19:35:52;;;;;;;30.17;22.05;;;;;;;18.75;100.00;101339.84;2616549;36;20459;-66
2021/09/10 19:38:22;;;;;;;31.57;24.87;;;;;;;18.72;100.00;101342.94;2616142;36;20049;-65
2021/09/10 19:40:51;;;;;;;38.33;27.42;;;;;;;18.62;100.00;101343.16;2617446;31;20516;-66
2021/09/10 19:43:21;;;;;;;32.42;25.73;;;;;;;18.60;100.00;101347.09;2615095;36;20422;-66
2021/09/10 19:45:49;;;;;;;35.90;24.15;;;;;;;18.55;100.00;101351.19;2616135;36;20114;-66
2021/09/10 19:48:19;;;;;;;33.33;24.00;;;;;;;18.46;100.00;101349.53;2615761;31;20033;-64
2021/09/10 19:50:48;;;;;;;31.40;24.85;;;;;;;18.36;100.00;101355.19;2616044;36;20035;-65
2021/09/10 19:53:17;;;;;;;35.95;26.15;;;;;;;18.31;100.00;101351.28;2616885;31;20633;-66
2021/09/10 19:55:48;;;;;;;36.05;26.05;;;;;;;18.37;100.00;101350.56;2616587;36;20027;-66
2021/09/10 19:58:17;;;;;;;39.20;28.88;;;;;;;18.43;100.00;101354.47;2616465;36;20035;-66
2021/09/10 20:00:45;;;;;;;38.55;26.13;;;;;;;18.46;100.00;101351.41;2616181;36;20125;-65
2021/09/10 20:03:13;;;;;;;34.92;26.85;;;;;;;18.38;100.00;101352.28;2616429;31;20149;-65
2021/09/10 20:05:41;;;;;;;37.45;25.33;;;;;;;18.44;100.00;101358.91;2616070;36;20613;-65
2021/09/10 20:08:10;;;;;;;30.10;24.03;;;;;;;18.46;100.00;101355.00;2616293;36;20532;-65
2021/09/10 20:10:38;;;;;;;32.88;25.23;;;;;;;18.42;100.00;101359.09;2615322;36;20037;-65
2021/09/10 20:13:09;;;;;;;39.60;27.90;;;;;;;18.31;100.00;101367.63;2616155;36;20089;-65
2021/09/10 20:15:37;;;;;;;38.13;26.90;;;;;;;18.28;100.00;101362.53;2616251;36;20069;-65
2021/09/10 20:18:06;;;;;;;38.93;27.67;;;;;;;18.17;100.00;101361.88;2616316;36;20047;-65
2021/09/10 20:20:34;;;;;;;36.70;26.90;;;;;;;18.05;100.00;101357.84;2617232;31;20471;-65
2021/09/10 20:23:02;;;;;;;53.58;34.33;;;;;;;18.13;100.00;101365.13;2616112;36;20558;-65
2021/09/10 20:25:31;;;;;;;35.35;26.27;;;;;;;18.15;100.00;101372.13;2616665;31;20435;-65
2021/09/10 20:27:59;;;;;;;34.28;25.17;;;;;;;18.16;100.00;101375.69;2616340;31;20073;-64
2021/09/10 20:30:30;;;;;;;36.33;26.60;;;;;;;18.09;100.00;101378.22;2616236;36;20118;-66
2021/09/10 20:32:59;;;;;;;37.08;27.63;;;;;;;18.04;100.00;101375.19;2616199;36;20053;-65
2021/09/10 20:35:27;;;;;;;54.85;32.85;;;;;;;18.09;100.00;101380.13;2616712;36;20042;-65
2021/09/10 20:37:55;;;;;;;41.00;29.13;;;;;;;18.12;100.00;101383.31;2616055;36;20034;-65
2021/09/10 20:40:24;;;;;;;46.63;31.43;;;;;;;18.18;100.00;101381.78;2615811;36;20118;-65
2021/09/10 20:42:52;;;;;;;42.65;28.23;;;;;;;18.07;100.00;101391.19;2616175;36;20093;-64
2021/09/10 20:45:20;;;;;;;43.85;28.80;;;;;;;18.14;100.00;101396.81;2616330;36;20026;-65
2021/09/10 20:47:51;;;;;;;48.37;31.27;;;;;;;18.11;100.00;101392.53;2615938;36;20662;-65
2021/09/10 20:50:20;;;;;;;47.80;31.02;;;;;;;18.12;100.00;101394.22;2616666;36;20283;-65
2021/09/10 20:52:48;;;;;;;49.78;31.80;;;;;;;18.10;100.00;101398.16;2615651;36;20133;-64
2021/09/10 20:55:16;;;;;;;56.53;35.70;;;;;;;18.18;100.00;101404.47;2616391;36;20114;-65
2021/09/10 20:57:45;;;;;;;63.03;34.90;;;;;;;18.26;100.00;101402.75;2616514;36;20101;-64
2021/09/10 21:00:14;;;;;;;64.85;37.08;;;;;;;18.25;100.00;101407.31;2615555;36;20035;-65
2021/09/10 21:02:42;;;;;;;63.38;37.28;;;;;;;18.39;100.00;101413.94;2616876;36;20133;-65
2021/09/10 21:05:14;;;;;;;72.27;37.90;;;;;;;18.43;100.00;101419.88;2616369;36;20027;-65
2021/09/10 21:07:42;;;;;;;77.68;40.40;;;;;;;18.46;100.00;101422.25;2616831;36;20077;-65
2021/09/10 21:10:12;;;;;;;82.60;42.50;;;;;;;18.43;100.00;101423.44;2617251;31;20535;-65
2021/09/10 21:12:40;;;;;;;78.57;40.47;;;;;;;18.50;100.00;101424.47;2616948;36;20126;-64
2021/09/10 21:15:10;;;;;;;73.00;40.15;;;;;;;18.48;100.00;101418.34;2616474;36;20113;-64
2021/09/10 21:17:38;;;;;;;69.22;40.78;;;;;;;18.53;100.00;101410.47;2618292;31;20471;-64
2021/09/10 21:20:09;;;;;;;66.23;37.97;;;;;;;18.55;100.00;101407.56;2617339;36;20631;-63
2021/09/10 21:22:40;;;;;;;84.88;40.22;;;;;;;18.49;100.00;101414.59;2617211;36;20027;-64
2021/09/10 21:25:10;;;;;;;90.70;39.80;;;;;;;18.48;100.00;101409.31;2617290;36;20061;-64
2021/09/10 21:27:38;;;;;;;80.30;38.03;;;;;;;18.42;100.00;101412.72;2617019;36;20034;-65
2021/09/10 21:30:09;;;;;;;84.22;39.13;;;;;;;18.46;100.00;101414.97;2617246;31;20162;-64
2021/09/10 21:32:37;;;;;;;76.82;40.65;;;;;;;18.52;100.00;101413.38;2617093;36;20054;-64
2021/09/10 21:35:06;;;;;;;78.07;41.57;;;;;;;18.55;100.00;101419.34;2617282;36;20166;-65
2021/09/10 21:37:34;;;;;;;;;;;;;;;18.48;100.00;101418.34;2617022;36;20134;-64
2021/09/10 21:40:06;;;;;;;100.53;42.97;;;;;;;18.46;100.00;101414.97;2617056;36;20004;-65
2021/09/10 21:42:34;;;;;;;78.70;40.90;;;;;;;18.44;100.00;101421.59;2614489;36;20053;-65
2021/09/10 21:45:04;;;;;;;76.30;41.47;;;;;;;18.50;100.00;101432.63;2602074;36;20070;-65
2021/09/10 21:47:32;;;;;;;73.82;40.75;;;;;;;18.54;100.00;101431.28;2601996;36;20121;-65
2021/09/10 21:50:00;;;;;;;85.20;42.47;;;;;;;18.54;100.00;101428.53;2602312;36;20170;-64
2021/09/10 21:52:28;;;;;;;83.00;42.23;;;;;;;18.56;100.00;101426.50;2601656;36;20173;-64
2021/09/10 21:54:56;;;;;;;102.47;47.93;;;;;;;18.65;100.00;101426.47;2606898;36;20354;-64
2021/09/10 21:57:27;;;;;;;130.50;46.83;;;;;;;18.60;100.00;101428.88;2605186;36;20483;-65
2021/09/10 21:59:55;;;;;;;94.00;43.83;;;;;;;18.62;100.00;101421.38;2604145;36;20137;-65
2021/09/10 22:02:24;;;;;;;110.67;46.87;;;;;;;18.62;100.00;101432.28;2605222;36;20262;-65
2021/09/10 22:04:52;;;;;;;154.23;47.57;;;;;;;18.65;100.00;101430.03;2602435;36;20542;-65
2021/09/10 22:07:20;;;;;;;110.93;47.87;;;;;;;18.64;100.00;101435.66;2606311;36;20042;-65
2021/09/10 22:09:48;;;;;;;84.85;41.95;;;;;;;18.70;100.00;101429.53;2607889;31;20291;-64
2021/09/10 22:12:16;;;;;;;94.87;46.00;;;;;;;18.63;100.00;101431.25;2607203;36;20129;-65
2021/09/10 22:14:48;;;;;;;83.13;42.23;;;;;;;18.68;100.00;101416.06;2604785;36;20038;-65
2021/09/10 22:17:16;;;;;;;69.47;39.10;;;;;;;18.71;100.00;101412.13;2607202;31;20727;-65
2021/09/10 22:19:45;;;;;;;68.70;37.37;;;;;;;18.47;100.00;101408.47;2605802;36;20100;-64
2021/09/10 22:22:13;;;;;;;76.07;40.28;;;;;;;18.45;100.00;101407.78;2603657;31;20031;-65
2021/09/10 22:24:42;;;;;;;85.07;40.45;;;;;;;18.39;100.00;101411.22;2602697;36;20652;-65
2021/09/10 22:27:10;;;;;;;67.67;37.03;;;;;;;18.54;100.00;101406.75;2603189;36;20568;-65
2021/09/10 22:29:38;;;;;;;61.63;36.63;;;;;;;18.62;100.00;101402.28;2607922;36;20200;-65
2021/09/10 22:32:10;;;;;;;62.00;38.00;;;;;;;18.51;100.00;101401.63;2608260;36;20057;-65
2021/09/10 22:34:38;;;;;;;63.42;35.83;;;;;;;18.40;100.00;101396.56;2603954;36;20173;-65
2021/09/10 22:39:34;;;;;;;50.13;32.97;;;;;;;18.44;100.00;101407.97;2601187;36;20126;-65
2021/09/10 22:42:02;;;;;;;52.60;33.37;;;;;;;18.49;100.00;101400.97;2601646;36;20031;-65
2021/09/10 22:44:30;;;;;;;49.30;32.30;;;;;;;18.51;100.00;101406.25;2603542;36;20317;-65
2021/09/10 22:46:59;;;;;;;55.53;32.00;;;;;;;18.36;100.00;101406.13;2603074;36;20138;-65
2021/09/10 22:49:29;;;;;;;53.90;30.80;;;;;;;18.24;100.00;101405.63;2604854;31;20137;-64
2021/09/10 22:51:58;;;;;;;55.35;33.42;;;;;;;18.24;100.00;101405.63;2606081;36;20618;-66
2021/09/10 22:54:26;;;;;;;53.23;32.83;;;;;;;18.33;100.00;101409.16;2601398;36;20153;-66
2021/09/10 22:56:54;;;;;;;50.47;32.70;;;;;;;18.26;100.00;101409.03;2604467;36;20114;-65
2021/09/10 22:59:22;;;;;;;51.80;32.33;;;;;;;18.27;100.00;101407.16;2608159;36;20271;-65
2021/09/10 23:01:51;;;;;;;60.13;35.00;;;;;;;18.24;100.00;101411.09;2608691;36;20077;-65